sensor_id;sensor_type;location;lat;lon;timestamp;P1;durP1;ratioP1;P2;durP2;ratioP2
8895;SDS011;4484;48.928;10.066;2023-02-23T00:01:52;14.83;;;10.67;;
8895;SDS011;4484;48.928;10.066;2023-02-23T00:04:19;17.37;;;10.97;;
8895;SDS011;4484;48.928;10.066;2023-02-23T00:06:47;14.23;;;10.17;;
8895;SDS011;4484;48.928;10.066;2023-02-23T00:09:13;16.07;;;9.50;;
8895;SDS011;4484;48.928;10.066;2023-02-23T00:11:50;12.73;;;9.50;;
8895;SDS011;4484;48.928;10.066;2023-02-23T00:14:26;12.20;;;8.80;;
8895;SDS011;4484;48.928;10.066;2023-02-23T00:16:56;12.93;;;8.57;;
8895;SDS011;4484;48.928;10.066;2023-02-23T00:19:25;11.27;;;8.30;;
8895;SDS011;4484;48.928;10.066;2023-02-23T00:21:52;12.03;;;8.53;;
8895;SDS011;4484;48.928;10.066;2023-02-23T00:24:19;14.27;;;10.10;;
8895;SDS011;4484;48.928;10.066;2023-02-23T00:26:47;17.50;;;10.93;;
8895;SDS011;4484;48.928;10.066;2023-02-23T00:29:17;13.90;;;9.63;;
8895;SDS011;4484;48.928;10.066;2023-02-23T00:31:50;15.33;;;10.17;;
8895;SDS011;4484;48.928;10.066;2023-02-23T00:34:19;13.00;;;8.97;;
8895;SDS011;4484;48.928;10.066;2023-02-23T00:36:51;18.03;;;11.70;;
8895;SDS011;4484;48.928;10.066;2023-02-23T00:39:24;26.90;;;16.10;;
8895;SDS011;4484;48.928;10.066;2023-02-23T00:41:54;23.47;;;15.00;;
8895;SDS011;4484;48.928;10.066;2023-02-23T00:44:22;26.30;;;16.23;;
8895;SDS011;4484;48.928;10.066;2023-02-23T00:46:50;26.57;;;16.10;;
8895;SDS011;4484;48.928;10.066;2023-02-23T00:49:18;25.37;;;16.13;;
8895;SDS011;4484;48.928;10.066;2023-02-23T00:51:47;28.77;;;16.40;;
8895;SDS011;4484;48.928;10.066;2023-02-23T00:54:14;20.97;;;14.50;;
8895;SDS011;4484;48.928;10.066;2023-02-23T00:56:43;23.27;;;15.37;;
8895;SDS011;4484;48.928;10.066;2023-02-23T00:59:10;21.90;;;15.33;;
8895;SDS011;4484;48.928;10.066;2023-02-23T01:01:38;18.73;;;13.53;;
8895;SDS011;4484;48.928;10.066;2023-02-23T01:04:10;21.43;;;13.50;;
8895;SDS011;4484;48.928;10.066;2023-02-23T01:06:38;22.23;;;14.27;;
8895;SDS011;4484;48.928;10.066;2023-02-23T01:09:15;19.77;;;13.00;;
8895;SDS011;4484;48.928;10.066;2023-02-23T01:11:54;18.43;;;13.30;;
8895;SDS011;4484;48.928;10.066;2023-02-23T01:14:22;19.90;;;14.33;;
8895;SDS011;4484;48.928;10.066;2023-02-23T01:16:49;17.53;;;12.20;;
8895;SDS011;4484;48.928;10.066;2023-02-23T01:19:16;18.57;;;12.77;;
8895;SDS011;4484;48.928;10.066;2023-02-23T01:21:43;17.07;;;11.73;;
8895;SDS011;4484;48.928;10.066;2023-02-23T01:24:10;19.20;;;12.23;;
8895;SDS011;4484;48.928;10.066;2023-02-23T01:26:39;21.67;;;12.93;;
8895;SDS011;4484;48.928;10.066;2023-02-23T01:29:15;17.03;;;12.30;;
8895;SDS011;4484;48.928;10.066;2023-02-23T01:31:44;20.27;;;12.37;;
8895;SDS011;4484;48.928;10.066;2023-02-23T01:34:16;17.43;;;11.43;;
8895;SDS011;4484;48.928;10.066;2023-02-23T01:36:44;15.20;;;10.43;;
8895;SDS011;4484;48.928;10.066;2023-02-23T01:39:13;13.23;;;9.80;;
8895;SDS011;4484;48.928;10.066;2023-02-23T01:41:42;12.73;;;9.43;;
8895;SDS011;4484;48.928;10.066;2023-02-23T01:46:40;13.43;;;9.23;;
8895;SDS011;4484;48.928;10.066;2023-02-23T01:49:21;12.70;;;9.20;;
8895;SDS011;4484;48.928;10.066;2023-02-23T01:51:53;13.10;;;9.23;;
8895;SDS011;4484;48.928;10.066;2023-02-23T01:54:27;12.13;;;8.57;;
8895;SDS011;4484;48.928;10.066;2023-02-23T01:56:58;12.97;;;8.97;;
8895;SDS011;4484;48.928;10.066;2023-02-23T01:59:28;12.90;;;8.50;;
8895;SDS011;4484;48.928;10.066;2023-02-23T02:02:02;11.83;;;9.17;;
8895;SDS011;4484;48.928;10.066;2023-02-23T02:04:31;12.20;;;9.03;;
8895;SDS011;4484;48.928;10.066;2023-02-23T02:07:13;11.83;;;9.73;;
8895;SDS011;4484;48.928;10.066;2023-02-23T02:09:46;13.37;;;9.30;;
8895;SDS011;4484;48.928;10.066;2023-02-23T02:12:35;12.83;;;8.83;;
8895;SDS011;4484;48.928;10.066;2023-02-23T02:15:06;13.63;;;9.43;;
8895;SDS011;4484;48.928;10.066;2023-02-23T02:29:40;16.17;;;10.87;;
8895;SDS011;4484;48.928;10.066;2023-02-23T02:44:13;12.63;;;9.40;;
8895;SDS011;4484;48.928;10.066;2023-02-23T02:46:47;15.57;;;10.33;;
8895;SDS011;4484;48.928;10.066;2023-02-23T02:54:45;16.00;;;10.83;;
8895;SDS011;4484;48.928;10.066;2023-02-23T02:57:19;15.27;;;10.73;;
8895;SDS011;4484;48.928;10.066;2023-02-23T02:59:50;15.53;;;11.10;;
8895;SDS011;4484;48.928;10.066;2023-02-23T03:02:37;16.67;;;11.13;;
8895;SDS011;4484;48.928;10.066;2023-02-23T03:05:26;15.70;;;11.20;;
8895;SDS011;4484;48.928;10.066;2023-02-23T03:08:21;15.40;;;11.13;;
8895;SDS011;4484;48.928;10.066;2023-02-23T03:11:15;17.03;;;11.70;;
8895;SDS011;4484;48.928;10.066;2023-02-23T03:25:52;20.93;;;14.43;;
8895;SDS011;4484;48.928;10.066;2023-02-23T03:28:54;18.87;;;13.60;;
8895;SDS011;4484;48.928;10.066;2023-02-23T03:32:10;21.70;;;14.40;;
8895;SDS011;4484;48.928;10.066;2023-02-23T03:35:55;20.90;;;13.67;;
8895;SDS011;4484;48.928;10.066;2023-02-23T03:38:28;20.60;;;13.73;;
8895;SDS011;4484;48.928;10.066;2023-02-23T03:41:22;17.00;;;12.17;;
8895;SDS011;4484;48.928;10.066;2023-02-23T03:44:12;18.77;;;11.60;;
8895;SDS011;4484;48.928;10.066;2023-02-23T03:47:02;17.83;;;12.83;;
8895;SDS011;4484;48.928;10.066;2023-02-23T03:49:50;20.33;;;12.60;;
8895;SDS011;4484;48.928;10.066;2023-02-23T03:52:46;16.27;;;11.70;;
8895;SDS011;4484;48.928;10.066;2023-02-23T03:55:36;18.53;;;12.87;;
8895;SDS011;4484;48.928;10.066;2023-02-23T03:58:29;15.50;;;11.90;;
8895;SDS011;4484;48.928;10.066;2023-02-23T04:01:20;14.73;;;10.93;;
8895;SDS011;4484;48.928;10.066;2023-02-23T04:04:07;16.17;;;11.07;;
8895;SDS011;4484;48.928;10.066;2023-02-23T04:06:55;21.63;;;14.50;;
8895;SDS011;4484;48.928;10.066;2023-02-23T04:09:43;22.23;;;14.63;;
8895;SDS011;4484;48.928;10.066;2023-02-23T04:12:36;19.03;;;13.33;;
8895;SDS011;4484;48.928;10.066;2023-02-23T04:15:37;21.27;;;14.00;;
8895;SDS011;4484;48.928;10.066;2023-02-23T04:18:21;21.70;;;14.30;;
8895;SDS011;4484;48.928;10.066;2023-02-23T04:20:50;21.50;;;14.57;;
8895;SDS011;4484;48.928;10.066;2023-02-23T04:23:18;18.10;;;12.60;;
8895;SDS011;4484;48.928;10.066;2023-02-23T04:25:45;19.97;;;14.30;;
8895;SDS011;4484;48.928;10.066;2023-02-23T04:28:13;17.00;;;12.57;;
8895;SDS011;4484;48.928;10.066;2023-02-23T04:30:41;17.53;;;12.43;;
8895;SDS011;4484;48.928;10.066;2023-02-23T04:33:10;16.93;;;12.23;;
8895;SDS011;4484;48.928;10.066;2023-02-23T04:35:37;15.33;;;11.47;;
8895;SDS011;4484;48.928;10.066;2023-02-23T04:38:04;15.27;;;10.50;;
8895;SDS011;4484;48.928;10.066;2023-02-23T04:40:31;15.00;;;10.60;;
8895;SDS011;4484;48.928;10.066;2023-02-23T04:42:58;15.37;;;11.13;;
8895;SDS011;4484;48.928;10.066;2023-02-23T04:45:25;15.83;;;11.63;;
8895;SDS011;4484;48.928;10.066;2023-02-23T04:47:52;13.07;;;9.93;;
8895;SDS011;4484;48.928;10.066;2023-02-23T04:50:20;15.10;;;11.23;;
8895;SDS011;4484;48.928;10.066;2023-02-23T04:52:47;14.90;;;10.73;;
8895;SDS011;4484;48.928;10.066;2023-02-23T04:55:15;16.20;;;11.53;;
8895;SDS011;4484;48.928;10.066;2023-02-23T04:57:44;14.80;;;10.70;;
8895;SDS011;4484;48.928;10.066;2023-02-23T05:00:12;15.60;;;11.60;;
8895;SDS011;4484;48.928;10.066;2023-02-23T05:02:39;14.20;;;10.30;;
8895;SDS011;4484;48.928;10.066;2023-02-23T05:05:06;14.57;;;10.83;;
8895;SDS011;4484;48.928;10.066;2023-02-23T05:07:35;15.80;;;11.17;;
8895;SDS011;4484;48.928;10.066;2023-02-23T05:10:03;16.67;;;11.43;;
8895;SDS011;4484;48.928;10.066;2023-02-23T05:12:31;14.40;;;10.73;;
8895;SDS011;4484;48.928;10.066;2023-02-23T05:14:58;16.27;;;10.93;;
8895;SDS011;4484;48.928;10.066;2023-02-23T05:17:25;15.73;;;11.80;;
8895;SDS011;4484;48.928;10.066;2023-02-23T05:19:52;17.67;;;11.83;;
8895;SDS011;4484;48.928;10.066;2023-02-23T05:22:19;15.27;;;11.33;;
8895;SDS011;4484;48.928;10.066;2023-02-23T05:24:46;13.87;;;10.87;;
8895;SDS011;4484;48.928;10.066;2023-02-23T05:27:13;15.53;;;11.47;;
8895;SDS011;4484;48.928;10.066;2023-02-23T05:29:58;17.27;;;12.00;;
8895;SDS011;4484;48.928;10.066;2023-02-23T05:32:25;14.83;;;10.93;;
8895;SDS011;4484;48.928;10.066;2023-02-23T05:34:52;16.33;;;10.97;;
8895;SDS011;4484;48.928;10.066;2023-02-23T05:37:19;14.70;;;10.73;;
8895;SDS011;4484;48.928;10.066;2023-02-23T05:39:46;16.10;;;11.50;;
8895;SDS011;4484;48.928;10.066;2023-02-23T05:42:13;15.93;;;11.70;;
8895;SDS011;4484;48.928;10.066;2023-02-23T05:44:40;15.03;;;10.47;;
8895;SDS011;4484;48.928;10.066;2023-02-23T05:47:07;15.67;;;11.07;;
8895;SDS011;4484;48.928;10.066;2023-02-23T05:49:34;15.03;;;11.03;;
8895;SDS011;4484;48.928;10.066;2023-02-23T05:52:01;14.73;;;10.50;;
8895;SDS011;4484;48.928;10.066;2023-02-23T05:54:28;15.63;;;11.40;;
8895;SDS011;4484;48.928;10.066;2023-02-23T05:56:55;23.80;;;15.70;;
8895;SDS011;4484;48.928;10.066;2023-02-23T05:59:22;17.87;;;12.63;;
8895;SDS011;4484;48.928;10.066;2023-02-23T06:01:49;17.47;;;12.63;;
8895;SDS011;4484;48.928;10.066;2023-02-23T06:04:16;16.57;;;12.07;;
8895;SDS011;4484;48.928;10.066;2023-02-23T06:06:43;18.17;;;12.50;;
8895;SDS011;4484;48.928;10.066;2023-02-23T06:09:10;17.37;;;12.13;;
8895;SDS011;4484;48.928;10.066;2023-02-23T06:11:37;17.57;;;12.30;;
8895;SDS011;4484;48.928;10.066;2023-02-23T06:14:05;15.10;;;11.20;;
8895;SDS011;4484;48.928;10.066;2023-02-23T06:16:32;14.90;;;11.20;;
8895;SDS011;4484;48.928;10.066;2023-02-23T06:18:59;14.63;;;10.63;;
8895;SDS011;4484;48.928;10.066;2023-02-23T06:21:26;15.43;;;11.83;;
8895;SDS011;4484;48.928;10.066;2023-02-23T06:23:53;21.10;;;13.40;;
8895;SDS011;4484;48.928;10.066;2023-02-23T06:26:20;29.27;;;18.70;;
8895;SDS011;4484;48.928;10.066;2023-02-23T06:28:47;27.17;;;18.23;;
8895;SDS011;4484;48.928;10.066;2023-02-23T06:31:14;27.13;;;17.83;;
8895;SDS011;4484;48.928;10.066;2023-02-23T06:33:42;26.13;;;17.13;;
8895;SDS011;4484;48.928;10.066;2023-02-23T06:36:09;32.80;;;21.53;;
8895;SDS011;4484;48.928;10.066;2023-02-23T06:38:36;34.23;;;21.77;;
8895;SDS011;4484;48.928;10.066;2023-02-23T06:41:07;32.20;;;20.70;;
8895;SDS011;4484;48.928;10.066;2023-02-23T06:43:35;28.47;;;19.87;;
8895;SDS011;4484;48.928;10.066;2023-02-23T06:46:03;32.00;;;19.20;;
8895;SDS011;4484;48.928;10.066;2023-02-23T06:48:31;32.73;;;20.30;;
8895;SDS011;4484;48.928;10.066;2023-02-23T06:50:58;23.93;;;16.93;;
8895;SDS011;4484;48.928;10.066;2023-02-23T06:53:26;26.80;;;17.10;;
8895;SDS011;4484;48.928;10.066;2023-02-23T06:55:53;22.60;;;15.90;;
8895;SDS011;4484;48.928;10.066;2023-02-23T06:58:20;29.43;;;18.13;;
8895;SDS011;4484;48.928;10.066;2023-02-23T07:00:47;22.23;;;14.40;;
8895;SDS011;4484;48.928;10.066;2023-02-23T07:03:14;25.50;;;15.87;;
8895;SDS011;4484;48.928;10.066;2023-02-23T07:05:41;19.37;;;13.67;;
8895;SDS011;4484;48.928;10.066;2023-02-23T07:08:08;28.00;;;17.97;;
8895;SDS011;4484;48.928;10.066;2023-02-23T07:10:35;31.20;;;20.97;;
8895;SDS011;4484;48.928;10.066;2023-02-23T07:13:02;33.90;;;21.57;;
8895;SDS011;4484;48.928;10.066;2023-02-23T07:15:29;31.80;;;21.13;;
8895;SDS011;4484;48.928;10.066;2023-02-23T07:17:56;27.60;;;19.40;;
8895;SDS011;4484;48.928;10.066;2023-02-23T07:20:23;25.63;;;17.90;;
8895;SDS011;4484;48.928;10.066;2023-02-23T07:22:50;25.57;;;17.30;;
8895;SDS011;4484;48.928;10.066;2023-02-23T07:25:17;29.53;;;19.10;;
8895;SDS011;4484;48.928;10.066;2023-02-23T07:27:44;25.27;;;17.43;;
8895;SDS011;4484;48.928;10.066;2023-02-23T07:30:11;31.30;;;19.23;;
8895;SDS011;4484;48.928;10.066;2023-02-23T07:32:39;32.50;;;19.53;;
8895;SDS011;4484;48.928;10.066;2023-02-23T07:35:06;27.43;;;19.87;;
8895;SDS011;4484;48.928;10.066;2023-02-23T07:37:34;30.07;;;20.07;;
8895;SDS011;4484;48.928;10.066;2023-02-23T07:40:01;25.87;;;18.50;;
8895;SDS011;4484;48.928;10.066;2023-02-23T07:42:29;33.63;;;21.77;;
8895;SDS011;4484;48.928;10.066;2023-02-23T07:44:56;29.37;;;19.57;;
8895;SDS011;4484;48.928;10.066;2023-02-23T07:47:23;30.47;;;19.87;;
8895;SDS011;4484;48.928;10.066;2023-02-23T07:49:59;24.80;;;18.20;;
8895;SDS011;4484;48.928;10.066;2023-02-23T07:52:28;35.10;;;21.23;;
8895;SDS011;4484;48.928;10.066;2023-02-23T07:54:55;29.07;;;20.63;;
8895;SDS011;4484;48.928;10.066;2023-02-23T07:57:23;32.50;;;21.20;;
8895;SDS011;4484;48.928;10.066;2023-02-23T07:59:50;39.73;;;22.43;;
8895;SDS011;4484;48.928;10.066;2023-02-23T08:02:17;35.43;;;22.07;;
8895;SDS011;4484;48.928;10.066;2023-02-23T08:04:44;36.97;;;24.10;;
8895;SDS011;4484;48.928;10.066;2023-02-23T08:07:11;31.50;;;19.33;;
8895;SDS011;4484;48.928;10.066;2023-02-23T08:09:37;32.37;;;21.07;;
8895;SDS011;4484;48.928;10.066;2023-02-23T08:12:04;31.27;;;19.97;;
8895;SDS011;4484;48.928;10.066;2023-02-23T08:14:32;27.47;;;18.17;;
8895;SDS011;4484;48.928;10.066;2023-02-23T08:16:59;24.60;;;16.93;;
8895;SDS011;4484;48.928;10.066;2023-02-23T08:19:27;29.17;;;18.03;;
8895;SDS011;4484;48.928;10.066;2023-02-23T08:21:54;67.27;;;29.03;;
8895;SDS011;4484;48.928;10.066;2023-02-23T08:24:22;50.60;;;27.37;;
8895;SDS011;4484;48.928;10.066;2023-02-23T08:26:50;37.23;;;22.80;;
8895;SDS011;4484;48.928;10.066;2023-02-23T08:29:17;32.00;;;21.80;;
8895;SDS011;4484;48.928;10.066;2023-02-23T08:31:44;31.97;;;20.73;;
8895;SDS011;4484;48.928;10.066;2023-02-23T08:34:12;33.70;;;21.90;;
8895;SDS011;4484;48.928;10.066;2023-02-23T08:36:39;32.43;;;19.77;;
8895;SDS011;4484;48.928;10.066;2023-02-23T08:39:08;31.67;;;19.97;;
8895;SDS011;4484;48.928;10.066;2023-02-23T08:44:10;30.30;;;20.47;;
8895;SDS011;4484;48.928;10.066;2023-02-23T08:46:37;28.47;;;20.13;;
8895;SDS011;4484;48.928;10.066;2023-02-23T08:49:04;29.20;;;19.23;;
8895;SDS011;4484;48.928;10.066;2023-02-23T08:51:32;27.63;;;19.03;;
8895;SDS011;4484;48.928;10.066;2023-02-23T08:54:00;25.53;;;17.57;;
8895;SDS011;4484;48.928;10.066;2023-02-23T08:56:27;28.43;;;17.47;;
8895;SDS011;4484;48.928;10.066;2023-02-23T08:58:54;28.77;;;18.33;;
8895;SDS011;4484;48.928;10.066;2023-02-23T09:01:21;27.73;;;18.00;;
8895;SDS011;4484;48.928;10.066;2023-02-23T09:03:48;29.90;;;18.23;;
8895;SDS011;4484;48.928;10.066;2023-02-23T09:06:17;31.50;;;20.17;;
8895;SDS011;4484;48.928;10.066;2023-02-23T09:08:44;28.53;;;18.33;;
8895;SDS011;4484;48.928;10.066;2023-02-23T09:11:12;24.13;;;17.10;;
8895;SDS011;4484;48.928;10.066;2023-02-23T09:13:39;25.13;;;16.63;;
8895;SDS011;4484;48.928;10.066;2023-02-23T09:16:06;22.77;;;15.97;;
8895;SDS011;4484;48.928;10.066;2023-02-23T09:18:33;24.20;;;15.87;;
8895;SDS011;4484;48.928;10.066;2023-02-23T09:21:04;24.27;;;15.90;;
8895;SDS011;4484;48.928;10.066;2023-02-23T09:23:33;21.80;;;15.00;;
8895;SDS011;4484;48.928;10.066;2023-02-23T09:26:04;20.67;;;14.57;;
8895;SDS011;4484;48.928;10.066;2023-02-23T09:28:33;18.70;;;13.60;;
8895;SDS011;4484;48.928;10.066;2023-02-23T09:31:04;21.90;;;13.70;;
8895;SDS011;4484;48.928;10.066;2023-02-23T09:33:42;19.73;;;13.80;;
8895;SDS011;4484;48.928;10.066;2023-02-23T09:36:10;25.97;;;14.43;;
8895;SDS011;4484;48.928;10.066;2023-02-23T09:38:41;20.97;;;13.60;;
8895;SDS011;4484;48.928;10.066;2023-02-23T09:41:22;19.50;;;13.57;;
8895;SDS011;4484;48.928;10.066;2023-02-23T09:47:01;22.40;;;14.20;;
8895;SDS011;4484;48.928;10.066;2023-02-23T09:49:34;21.63;;;15.87;;
8895;SDS011;4484;48.928;10.066;2023-02-23T09:52:04;20.80;;;14.20;;
8895;SDS011;4484;48.928;10.066;2023-02-23T09:54:41;18.70;;;14.23;;
8895;SDS011;4484;48.928;10.066;2023-02-23T09:57:13;21.23;;;14.63;;
8895;SDS011;4484;48.928;10.066;2023-02-23T09:59:58;21.73;;;13.87;;
8895;SDS011;4484;48.928;10.066;2023-02-23T10:02:31;22.70;;;13.83;;
8895;SDS011;4484;48.928;10.066;2023-02-23T10:05:06;19.93;;;14.13;;
8895;SDS011;4484;48.928;10.066;2023-02-23T10:07:55;20.77;;;13.20;;
8895;SDS011;4484;48.928;10.066;2023-02-23T10:10:42;25.87;;;13.67;;
8895;SDS011;4484;48.928;10.066;2023-02-23T10:13:32;22.73;;;14.77;;
8895;SDS011;4484;48.928;10.066;2023-02-23T10:16:28;20.07;;;13.03;;
8895;SDS011;4484;48.928;10.066;2023-02-23T10:21:41;16.00;;;11.07;;
8895;SDS011;4484;48.928;10.066;2023-02-23T10:24:11;14.17;;;9.87;;
8895;SDS011;4484;48.928;10.066;2023-02-23T10:32:18;14.67;;;9.07;;
8895;SDS011;4484;48.928;10.066;2023-02-23T10:35:08;14.30;;;9.10;;
8895;SDS011;4484;48.928;10.066;2023-02-23T10:37:40;12.60;;;9.37;;
8895;SDS011;4484;48.928;10.066;2023-02-23T10:40:12;12.83;;;9.07;;
8895;SDS011;4484;48.928;10.066;2023-02-23T10:42:46;12.53;;;10.43;;
8895;SDS011;4484;48.928;10.066;2023-02-23T10:45:14;13.13;;;9.83;;
8895;SDS011;4484;48.928;10.066;2023-02-23T10:47:59;13.63;;;8.27;;
8895;SDS011;4484;48.928;10.066;2023-02-23T10:50:30;11.30;;;8.00;;
8895;SDS011;4484;48.928;10.066;2023-02-23T10:55:44;10.13;;;8.03;;
8895;SDS011;4484;48.928;10.066;2023-02-23T10:58:15;11.60;;;7.77;;
8895;SDS011;4484;48.928;10.066;2023-02-23T11:00:51;9.80;;;7.30;;
8895;SDS011;4484;48.928;10.066;2023-02-23T11:03:34;14.93;;;7.70;;
8895;SDS011;4484;48.928;10.066;2023-02-23T11:06:28;9.87;;;7.60;;
8895;SDS011;4484;48.928;10.066;2023-02-23T11:08:57;14.43;;;7.87;;
8895;SDS011;4484;48.928;10.066;2023-02-23T11:11:25;8.33;;;5.93;;
8895;SDS011;4484;48.928;10.066;2023-02-23T11:13:57;19.80;;;15.20;;
8895;SDS011;4484;48.928;10.066;2023-02-23T11:16:24;10.37;;;7.77;;
8895;SDS011;4484;48.928;10.066;2023-02-23T11:18:59;9.27;;;6.57;;
8895;SDS011;4484;48.928;10.066;2023-02-23T11:21:29;11.57;;;7.00;;
8895;SDS011;4484;48.928;10.066;2023-02-23T11:26:50;7.97;;;6.13;;
8895;SDS011;4484;48.928;10.066;2023-02-23T11:29:25;6.77;;;5.50;;
8895;SDS011;4484;48.928;10.066;2023-02-23T11:31:58;10.83;;;6.37;;
8895;SDS011;4484;48.928;10.066;2023-02-23T11:34:36;9.70;;;5.73;;
8895;SDS011;4484;48.928;10.066;2023-02-23T11:37:18;8.53;;;5.60;;
8895;SDS011;4484;48.928;10.066;2023-02-23T11:39:52;8.80;;;6.83;;
8895;SDS011;4484;48.928;10.066;2023-02-23T11:42:21;7.60;;;5.70;;
8895;SDS011;4484;48.928;10.066;2023-02-23T11:47:40;6.90;;;4.70;;
8895;SDS011;4484;48.928;10.066;2023-02-23T11:52:48;7.63;;;5.30;;
8895;SDS011;4484;48.928;10.066;2023-02-23T11:55:25;19.17;;;15.20;;
8895;SDS011;4484;48.928;10.066;2023-02-23T11:58:05;10.77;;;6.43;;
8895;SDS011;4484;48.928;10.066;2023-02-23T12:00:54;8.00;;;5.83;;
8895;SDS011;4484;48.928;10.066;2023-02-23T12:03:26;9.40;;;5.77;;
8895;SDS011;4484;48.928;10.066;2023-02-23T12:05:57;8.13;;;4.87;;
8895;SDS011;4484;48.928;10.066;2023-02-23T12:10:53;7.63;;;4.77;;
8895;SDS011;4484;48.928;10.066;2023-02-23T12:13:37;7.77;;;4.30;;
8895;SDS011;4484;48.928;10.066;2023-02-23T12:24:09;4.90;;;4.13;;
8895;SDS011;4484;48.928;10.066;2023-02-23T12:26:52;8.30;;;4.37;;
8895;SDS011;4484;48.928;10.066;2023-02-23T12:29:35;6.00;;;4.10;;
8895;SDS011;4484;48.928;10.066;2023-02-23T12:32:19;8.17;;;4.93;;
8895;SDS011;4484;48.928;10.066;2023-02-23T12:37:42;8.87;;;4.00;;
8895;SDS011;4484;48.928;10.066;2023-02-23T12:40:26;8.90;;;3.93;;
8895;SDS011;4484;48.928;10.066;2023-02-23T12:43:06;7.93;;;3.87;;
8895;SDS011;4484;48.928;10.066;2023-02-23T12:45:51;5.57;;;4.17;;
8895;SDS011;4484;48.928;10.066;2023-02-23T12:54:27;7.20;;;3.60;;
8895;SDS011;4484;48.928;10.066;2023-02-23T12:59:44;5.87;;;3.87;;
8895;SDS011;4484;48.928;10.066;2023-02-23T13:05:19;8.67;;;3.83;;
8895;SDS011;4484;48.928;10.066;2023-02-23T13:29:04;7.23;;;3.40;;
8895;SDS011;4484;48.928;10.066;2023-02-23T13:31:37;7.73;;;4.10;;
8895;SDS011;4484;48.928;10.066;2023-02-23T13:34:15;6.93;;;3.80;;
8895;SDS011;4484;48.928;10.066;2023-02-23T13:36:50;14.93;;;4.67;;
8895;SDS011;4484;48.928;10.066;2023-02-23T13:44:54;5.53;;;2.70;;
8895;SDS011;4484;48.928;10.066;2023-02-23T13:53:24;6.27;;;2.73;;
8895;SDS011;4484;48.928;10.066;2023-02-23T13:56:15;6.07;;;3.13;;
8895;SDS011;4484;48.928;10.066;2023-02-23T13:58:46;3.63;;;2.53;;
8895;SDS011;4484;48.928;10.066;2023-02-23T14:01:23;7.30;;;3.00;;
8895;SDS011;4484;48.928;10.066;2023-02-23T14:03:57;5.87;;;3.13;;
8895;SDS011;4484;48.928;10.066;2023-02-23T14:06:27;7.30;;;3.03;;
8895;SDS011;4484;48.928;10.066;2023-02-23T14:08:58;7.23;;;2.60;;
8895;SDS011;4484;48.928;10.066;2023-02-23T14:14:14;5.87;;;3.00;;
8895;SDS011;4484;48.928;10.066;2023-02-23T14:19:43;6.07;;;;;
8895;SDS011;4484;48.928;10.066;2023-02-23T14:22:21;5.27;;;3.10;;
8895;SDS011;4484;48.928;10.066;2023-02-23T14:25:39;7.47;;;3.87;;
8895;SDS011;4484;48.928;10.066;2023-02-23T14:27:58;7.33;;;4.23;;
8895;SDS011;4484;48.928;10.066;2023-02-23T14:30:58;7.07;;;3.40;;
8895;SDS011;4484;48.928;10.066;2023-02-23T14:33:48;6.33;;;2.97;;
8895;SDS011;4484;48.928;10.066;2023-02-23T14:49:31;8.03;;;2.80;;
8895;SDS011;4484;48.928;10.066;2023-02-23T14:52:19;7.77;;;3.03;;
8895;SDS011;4484;48.928;10.066;2023-02-23T14:54:47;6.30;;;3.50;;
8895;SDS011;4484;48.928;10.066;2023-02-23T14:57:23;7.83;;;3.10;;
8895;SDS011;4484;48.928;10.066;2023-02-23T14:59:58;4.63;;;2.33;;
8895;SDS011;4484;48.928;10.066;2023-02-23T15:02:28;4.70;;;2.57;;
8895;SDS011;4484;48.928;10.066;2023-02-23T15:04:55;3.73;;;2.27;;
8895;SDS011;4484;48.928;10.066;2023-02-23T15:07:35;7.93;;;2.70;;
8895;SDS011;4484;48.928;10.066;2023-02-23T15:10:11;5.00;;;2.30;;
8895;SDS011;4484;48.928;10.066;2023-02-23T15:12:50;3.77;;;1.97;;
8895;SDS011;4484;48.928;10.066;2023-02-23T15:15:19;3.97;;;1.90;;
8895;SDS011;4484;48.928;10.066;2023-02-23T15:17:51;4.23;;;2.30;;
8895;SDS011;4484;48.928;10.066;2023-02-23T15:20:22;5.53;;;2.17;;
8895;SDS011;4484;48.928;10.066;2023-02-23T15:22:54;5.00;;;2.10;;
8895;SDS011;4484;48.928;10.066;2023-02-23T15:25:45;4.23;;;2.47;;
8895;SDS011;4484;48.928;10.066;2023-02-23T15:30:46;5.63;;;3.10;;
8895;SDS011;4484;48.928;10.066;2023-02-23T15:33:15;5.17;;;2.83;;
8895;SDS011;4484;48.928;10.066;2023-02-23T15:38:28;8.63;;;2.80;;
8895;SDS011;4484;48.928;10.066;2023-02-23T15:41:14;5.07;;;2.70;;
8895;SDS011;4484;48.928;10.066;2023-02-23T15:43:52;4.73;;;2.50;;
8895;SDS011;4484;48.928;10.066;2023-02-23T15:46:22;3.53;;;2.47;;
8895;SDS011;4484;48.928;10.066;2023-02-23T15:48:53;7.97;;;2.57;;
8895;SDS011;4484;48.928;10.066;2023-02-23T15:54:18;7.10;;;2.90;;
8895;SDS011;4484;48.928;10.066;2023-02-23T15:57:25;5.17;;;2.30;;
8895;SDS011;4484;48.928;10.066;2023-02-23T16:00:11;6.33;;;2.97;;
8895;SDS011;4484;48.928;10.066;2023-02-23T16:02:46;8.20;;;3.50;;
8895;SDS011;4484;48.928;10.066;2023-02-23T16:05:17;7.50;;;3.57;;
8895;SDS011;4484;48.928;10.066;2023-02-23T16:07:46;5.57;;;3.33;;
8895;SDS011;4484;48.928;10.066;2023-02-23T16:10:21;5.63;;;2.97;;
8895;SDS011;4484;48.928;10.066;2023-02-23T16:12:51;8.57;;;3.90;;
8895;SDS011;4484;48.928;10.066;2023-02-23T16:15:26;6.00;;;3.73;;
8895;SDS011;4484;48.928;10.066;2023-02-23T16:17:55;7.37;;;3.13;;
8895;SDS011;4484;48.928;10.066;2023-02-23T16:23:01;3.77;;;2.80;;
8895;SDS011;4484;48.928;10.066;2023-02-23T16:25:29;4.63;;;2.33;;
8895;SDS011;4484;48.928;10.066;2023-02-23T16:35:45;7.70;;;3.87;;
8895;SDS011;4484;48.928;10.066;2023-02-23T16:38:33;7.33;;;3.43;;
8895;SDS011;4484;48.928;10.066;2023-02-23T16:41:05;7.30;;;3.27;;
8895;SDS011;4484;48.928;10.066;2023-02-23T16:43:45;5.40;;;2.80;;
8895;SDS011;4484;48.928;10.066;2023-02-23T16:46:17;5.47;;;2.50;;
8895;SDS011;4484;48.928;10.066;2023-02-23T16:48:45;3.93;;;2.60;;
8895;SDS011;4484;48.928;10.066;2023-02-23T16:51:15;6.40;;;2.67;;
8895;SDS011;4484;48.928;10.066;2023-02-23T16:53:44;4.23;;;2.83;;
8895;SDS011;4484;48.928;10.066;2023-02-23T16:56:13;4.07;;;2.33;;
8895;SDS011;4484;48.928;10.066;2023-02-23T16:58:43;2.43;;;1.83;;
8895;SDS011;4484;48.928;10.066;2023-02-23T17:01:13;4.43;;;2.37;;
8895;SDS011;4484;48.928;10.066;2023-02-23T17:03:44;3.73;;;2.83;;
8895;SDS011;4484;48.928;10.066;2023-02-23T17:06:18;6.73;;;3.67;;
8895;SDS011;4484;48.928;10.066;2023-02-23T17:08:46;5.10;;;3.27;;
8895;SDS011;4484;48.928;10.066;2023-02-23T17:11:23;5.33;;;3.47;;
8895;SDS011;4484;48.928;10.066;2023-02-23T17:13:50;5.27;;;3.50;;
8895;SDS011;4484;48.928;10.066;2023-02-23T17:16:17;5.23;;;3.37;;
8895;SDS011;4484;48.928;10.066;2023-02-23T17:18:45;4.27;;;2.60;;
8895;SDS011;4484;48.928;10.066;2023-02-23T17:21:12;4.13;;;2.77;;
8895;SDS011;4484;48.928;10.066;2023-02-23T17:23:48;3.97;;;2.50;;
8895;SDS011;4484;48.928;10.066;2023-02-23T17:26:18;4.40;;;2.60;;
8895;SDS011;4484;48.928;10.066;2023-02-23T17:28:47;3.87;;;2.83;;
8895;SDS011;4484;48.928;10.066;2023-02-23T17:31:14;4.87;;;3.20;;
8895;SDS011;4484;48.928;10.066;2023-02-23T17:33:42;4.27;;;3.00;;
8895;SDS011;4484;48.928;10.066;2023-02-23T17:36:11;3.93;;;3.43;;
8895;SDS011;4484;48.928;10.066;2023-02-23T17:38:39;7.50;;;4.93;;
8895;SDS011;4484;48.928;10.066;2023-02-23T17:41:18;5.53;;;4.47;;
8895;SDS011;4484;48.928;10.066;2023-02-23T17:43:46;6.97;;;4.90;;
8895;SDS011;4484;48.928;10.066;2023-02-23T17:46:13;9.13;;;5.80;;
8895;SDS011;4484;48.928;10.066;2023-02-23T17:48:40;6.63;;;5.60;;
8895;SDS011;4484;48.928;10.066;2023-02-23T17:51:10;8.60;;;5.43;;
8895;SDS011;4484;48.928;10.066;2023-02-23T17:53:38;7.67;;;4.70;;
8895;SDS011;4484;48.928;10.066;2023-02-23T17:56:06;5.93;;;4.47;;
8895;SDS011;4484;48.928;10.066;2023-02-23T17:58:34;5.83;;;3.83;;
8895;SDS011;4484;48.928;10.066;2023-02-23T18:01:03;4.80;;;3.90;;
8895;SDS011;4484;48.928;10.066;2023-02-23T18:03:31;5.30;;;3.83;;